Time;durP1;ratioP1;P1;durP2;ratioP2;P2;SDS_P1;SDS_P2;PMS_P1;PMS_P2;Temp;Humidity;BMP_temperature;BMP_pressure;BME280_temperature;BME280_humidity;BME280_pressure;Samples;Min_cycle;Max_cycle;Signal;HPM_P1;HPM_P2
2023/07/06 00:01:45;;;;;;;6.30;4.63;;;;;;;;;;5084655;28;20438;-55
2023/07/06 00:04:12;;;;;;;2.73;2.10;;;;;;;;;;5090090;28;20949;-55
2023/07/06 00:06:40;;;;;;;2.97;2.67;;;17.00;99.90;;;;;;5078323;28;20852;-59
2023/07/06 00:09:09;;;;;;;3.60;2.70;;;17.10;99.90;;;;;;5086668;28;20477;-53
2023/07/06 00:11:38;;;;;;;3.53;2.97;;;17.10;99.90;;;;;;5090585;28;20504;-55
2023/07/06 00:14:10;;;;;;;4.30;2.87;;;;;;;;;;5093755;28;20414;-52
2023/07/06 00:16:41;;;;;;;8.63;2.73;;;17.10;99.90;;;;;;5095698;28;20481;-51
2023/07/06 00:19:08;;;;;;;7.27;2.37;;;17.10;99.90;;;;;;5094218;28;20466;-57
2023/07/06 00:21:35;;;;;;;3.20;2.70;;;;;;;;;;5095816;28;20506;-57
2023/07/06 00:24:02;;;;;;;3.63;2.13;;;17.00;99.90;;;;;;5091464;28;20470;-55
2023/07/06 00:26:29;;;;;;;6.53;2.87;;;;;;;;;;5094875;28;20430;-58
2023/07/06 00:28:58;;;;;;;6.43;2.93;;;;;;;;;;5090156;28;20446;-54
2023/07/06 00:31:50;;;;;;;3.40;2.03;;;16.60;99.90;;;;;;5085094;28;20493;-54
2023/07/06 00:34:19;;;;;;;4.47;2.63;;;17.50;99.90;;;;;;5093131;28;20894;-57
2023/07/06 00:36:47;;;;;;;10.20;2.40;;;17.00;99.90;;;;;;5091479;28;20493;-55
2023/07/06 00:39:14;;;;;;;5.00;2.57;;;16.90;99.90;;;;;;5096278;28;20589;-58
2023/07/06 00:41:43;;;;;;;5.87;3.03;;;;;;;;;;5091855;28;20481;-59
2023/07/06 00:44:44;;;;;;;3.63;2.23;;;17.40;99.90;;;;;;5086653;28;20446;-57
2023/07/06 00:47:12;;;;;;;6.40;2.47;;;16.70;99.90;;;;;;5087204;28;20441;-57
2023/07/06 00:49:42;;;;;;;2.90;2.00;;;16.50;99.90;;;;;;5091838;28;20466;-55
2023/07/06 00:52:10;;;;;;;3.30;3.00;;;;;;;;;;5091685;28;20510;-54
2023/07/06 00:54:40;;;;;;;3.60;2.60;;;16.80;99.90;;;;;;5091287;28;20506;-54
2023/07/06 00:57:08;;;;;;;6.53;2.67;;;16.80;99.90;;;;;;5090507;28;20930;-56
2023/07/06 00:59:39;;;;;;;5.33;2.47;;;16.80;99.90;;;;;;5089861;28;20449;-53
2023/07/06 01:02:08;;;;;;;4.30;2.20;;;16.60;99.90;;;;;;5092160;28;20493;-56
2023/07/06 01:04:35;;;;;;;9.30;2.50;;;;;;;;;;5089909;28;20450;-55
2023/07/06 01:07:04;;;;;;;6.00;2.70;;;16.60;99.90;;;;;;5088053;28;20442;-58
2023/07/06 01:09:32;;;;;;;4.43;2.30;;;;;;;;;;5089550;28;20920;-55
2023/07/06 01:12:02;;;;;;;4.40;3.40;;;;;;;;;;5085165;28;20573;-55
2023/07/06 01:14:31;;;;;;;4.50;2.63;;;;;;;;;;5077672;28;20462;-57
2023/07/06 01:17:06;;;;;;;4.33;2.90;;;16.70;99.90;;;;;;5081154;28;20446;-59
2023/07/06 01:20:03;;;;;;;4.20;2.17;;;16.80;99.90;;;;;;5086241;28;20819;-59
2023/07/06 01:22:51;;;;;;;5.60;2.83;;;16.70;99.90;;;;;;5098638;28;20415;-52
2023/07/06 01:25:30;;;;;;;3.10;2.60;;;16.60;99.90;;;;;;5097720;28;20443;-55
2023/07/06 01:28:28;;;;;;;6.80;2.70;;;16.80;99.90;;;;;;5090910;28;20430;-58
2023/07/06 01:31:17;;;;;;;4.13;2.83;;;16.70;99.90;;;;;;5093574;28;20990;-57
2023/07/06 01:33:52;;;;;;;5.90;3.40;;;16.70;99.90;;;;;;5082886;28;20471;-60
2023/07/06 01:36:25;;;;;;;3.80;2.73;;;16.60;99.90;;;;;;5079830;28;20487;-59
2023/07/06 01:39:11;;;;;;;3.00;2.60;;;;;;;;;;5076824;28;20561;-57
2023/07/06 01:41:45;;;;;;;4.70;3.47;;;;;;;;;;5089313;28;20453;-55
2023/07/06 01:44:14;;;;;;;3.17;2.57;;;16.40;99.90;;;;;;5092692;28;20442;-52
2023/07/06 01:46:48;;;;;;;4.70;3.10;;;16.60;99.90;;;;;;5089124;28;20422;-56
2023/07/06 01:49:15;;;;;;;8.10;4.13;;;;;;;;;;5092463;28;20478;-56
2023/07/06 01:51:52;;;;;;;5.13;2.77;;;16.90;99.90;;;;;;5087115;28;20526;-57
2023/07/06 01:54:25;;;;;;;2.53;2.10;;;16.60;99.90;;;;;;5082638;28;20423;-56
2023/07/06 01:57:05;;;;;;;7.27;4.20;;;16.50;99.90;;;;;;5087808;28;20557;-56
2023/07/06 01:59:35;;;;;;;6.57;3.77;;;16.40;99.90;;;;;;5085797;28;20494;-59
2023/07/06 02:02:07;;;;;;;3.20;2.90;;;16.40;99.90;;;;;;5090847;28;20502;-58
2023/07/06 02:04:37;;;;;;;4.63;2.47;;;16.20;99.90;;;;;;5080464;28;20467;-57
2023/07/06 02:07:06;;;;;;;4.90;2.63;;;16.20;99.90;;;;;;5094402;28;20426;-53
2023/07/06 02:09:34;;;;;;;7.80;3.50;;;;;;;;;;5097395;28;20473;-55
2023/07/06 02:12:01;;;;;;;5.47;3.10;;;;;;;;;;5088495;28;20497;-57
2023/07/06 02:14:32;;;;;;;4.33;3.57;;;16.10;99.90;;;;;;5085486;28;20516;-59
2023/07/06 02:16:59;;;;;;;4.47;2.93;;;;;;;;;;5081501;28;20434;-57
2023/07/06 02:19:27;;;;;;;5.30;3.30;;;15.90;99.90;;;;;;5087988;28;20462;-61
2023/07/06 02:21:55;;;;;;;5.80;3.23;;;;;;;;;;5083680;28;20466;-56
2023/07/06 02:24:22;;;;;;;6.83;3.40;;;;;;;;;;5082789;28;20921;-60
2023/07/06 02:26:49;;;;;;;7.27;3.30;;;16.60;99.90;;;;;;5091272;28;20533;-55
2023/07/06 02:29:16;;;;;;;8.53;3.40;;;16.50;99.90;;;;;;5085185;28;20462;-57
2023/07/06 02:31:46;;;;;;;6.03;2.80;;;;;;;;;;5084933;28;20841;-56
2023/07/06 02:34:13;;;;;;;3.23;2.73;;;15.90;99.90;;;;;;5095338;28;20466;-56
2023/07/06 02:36:43;;;;;;;5.07;3.30;;;15.90;99.90;;;;;;5088376;28;20464;-52
2023/07/06 02:39:10;;;;;;;5.53;3.40;;;;;;;;;;5090509;28;20434;-55
2023/07/06 02:41:37;;;;;;;5.27;2.73;;;15.70;99.90;;;;;;5083311;28;20451;-59
2023/07/06 02:44:05;;;;;;;6.83;2.80;;;;;;;;;;5087100;28;20473;-54
2023/07/06 02:46:32;;;;;;;3.07;2.40;;;;;;;;;;5083214;28;20462;-56
2023/07/06 02:48:59;;;;;;;3.93;3.20;;;;;;;;;;5091544;28;20426;-58
2023/07/06 02:51:29;;;;;;;7.30;3.00;;;;;;;;;;5083521;28;20570;-55
2023/07/06 02:53:57;;;;;;;7.53;3.13;;;;;;;;;;5092198;28;20509;-57
2023/07/06 02:56:26;;;;;;;3.43;2.93;;;;;;;;;;5081644;28;20474;-58
2023/07/06 02:58:53;;;;;;;7.40;2.80;;;;;;;;;;5091081;28;20466;-56
2023/07/06 03:01:23;;;;;;;7.77;3.40;;;;;;;;;;5085539;28;20511;-53
2023/07/06 03:03:51;;;;;;;3.87;2.80;;;;;;;;;;5089480;28;20510;-56
2023/07/06 03:06:18;;;;;;;4.53;2.73;;;;;;;;;;5088918;28;20470;-53
2023/07/06 03:08:46;;;;;;;4.63;3.03;;;15.60;99.90;;;;;;5090874;28;20533;-53
2023/07/06 03:11:14;;;;;;;4.50;2.70;;;15.90;99.90;;;;;;5088366;28;20478;-50
2023/07/06 03:13:42;;;;;;;6.20;3.60;;;15.60;99.90;;;;;;5091353;28;20442;-51
2023/07/06 03:16:09;;;;;;;4.17;3.27;;;;;;;;;;5088857;28;20506;-59
2023/07/06 03:18:36;;;;;;;3.27;2.40;;;;;;;;;;5093448;28;20470;-57
2023/07/06 03:21:03;;;;;;;7.60;2.60;;;;;;;;;;5093323;28;20941;-54
2023/07/06 03:23:30;;;;;;;8.50;3.03;;;;;;;;;;5091544;28;20480;-57
2023/07/06 03:25:58;;;;;;;4.10;2.60;;;;;;;;;;5083086;28;20457;-58
2023/07/06 03:28:28;;;;;;;7.77;3.47;;;15.40;99.90;;;;;;5090559;28;20447;-56
2023/07/06 03:30:56;;;;;;;3.73;3.10;;;15.50;99.90;;;;;;5086666;28;20438;-58
2023/07/06 03:33:24;;;;;;;5.50;3.30;;;;;;;;;;5089983;28;20466;-58
2023/07/06 03:35:53;;;;;;;4.00;3.03;;;;;;;;;;5084891;28;20488;-59
2023/07/06 03:38:27;;;;;;;3.23;2.63;;;15.40;99.90;;;;;;5086693;28;20434;-55
2023/07/06 03:40:54;;;;;;;7.50;3.00;;;;;;;;;;5092348;28;20427;-58
2023/07/06 03:43:21;;;;;;;6.53;2.80;;;;;;;;;;5095212;28;20453;-58
2023/07/06 03:45:49;;;;;;;4.60;3.30;;;15.60;99.90;;;;;;5090404;28;20442;-57
2023/07/06 03:48:16;;;;;;;4.73;3.00;;;15.90;99.90;;;;;;5088024;28;20497;-61
2023/07/06 03:50:43;;;;;;;6.03;3.17;;;;;;;;;;5088259;28;20450;-59
2023/07/06 03:53:13;;;;;;;4.10;3.43;;;;;;;;;;5087426;28;20492;-59
2023/07/06 03:55:40;;;;;;;4.47;3.33;;;;;;;;;;5074980;28;20477;-56
2023/07/06 03:58:07;;;;;;;3.50;2.73;;;;;;;;;;5082233;28;20457;-56
2023/07/06 04:00:35;;;;;;;4.40;3.50;;;;;;;;;;5073970;28;20501;-58
2023/07/06 04:03:04;;;;;;;4.80;3.37;;;16.40;99.90;;;;;;5089149;28;20482;-55
2023/07/06 04:05:34;;;;;;;7.33;3.80;;;15.60;99.90;;;;;;5089794;28;20442;-56
2023/07/06 04:08:03;;;;;;;4.30;3.27;;;15.60;99.90;;;;;;5085636;28;20541;-56
2023/07/06 04:10:31;;;;;;;4.27;3.77;;;15.80;99.90;;;;;;5089279;28;20465;-55
2023/07/06 04:12:58;;;;;;;5.70;3.20;;;15.60;99.90;;;;;;5095739;28;20477;-56
2023/07/06 04:15:25;;;;;;;4.67;3.30;;;15.70;99.90;;;;;;5086926;28;20518;-56
2023/07/06 04:17:53;;;;;;;4.10;3.20;;;15.80;99.90;;;;;;5093454;28;20462;-58
2023/07/06 04:20:24;;;;;;;3.67;2.73;;;16.10;99.90;;;;;;5093640;28;20470;-57
2023/07/06 04:22:54;;;;;;;5.37;3.03;;;15.80;99.90;;;;;;5097664;28;20403;-58
2023/07/06 04:25:26;;;;;;;11.60;3.50;;;15.70;99.90;;;;;;5094854;28;20470;-56
2023/07/06 04:27:54;;;;;;;4.80;3.10;;;;;;;;;;5095471;28;20466;-56
2023/07/06 04:30:21;;;;;;;5.37;3.17;;;;;;;;;;5099452;28;20422;-50
2023/07/06 04:32:49;;;;;;;6.07;3.40;;;;;;;;;;5094450;28;20585;-55
2023/07/06 04:35:18;;;;;;;4.93;3.50;;;15.80;99.90;;;;;;5093486;28;20443;-55
2023/07/06 04:37:48;;;;;;;4.10;3.40;;;15.70;99.90;;;;;;5093917;28;20466;-53
2023/07/06 04:40:18;;;;;;;5.90;4.40;;;15.80;99.90;;;;;;5090229;28;20490;-55
2023/07/06 04:42:46;;;;;;;4.73;3.87;;;15.80;99.90;;;;;;5096811;28;20445;-53
2023/07/06 04:45:13;;;;;;;6.67;3.03;;;;;;;;;;5091733;28;20458;-54
2023/07/06 04:47:40;;;;;;;7.30;4.27;;;15.80;99.90;;;;;;5091037;28;20541;-57
2023/07/06 04:50:09;;;;;;;5.20;3.00;;;15.90;99.90;;;;;;5091702;28;20474;-55
2023/07/06 04:52:37;;;;;;;4.50;3.17;;;;;;;;;;5077062;28;20543;-58
2023/07/06 04:55:06;;;;;;;11.93;3.20;;;16.00;99.90;;;;;;5076990;28;20450;-59
2023/07/06 04:57:36;;;;;;;3.87;2.80;;;16.00;99.90;;;;;;5088563;28;20480;-58
2023/07/06 05:00:12;;;;;;;4.43;2.83;;;16.10;99.90;;;;;;5093646;28;20481;-58
2023/07/06 05:02:39;;;;;;;5.77;2.90;;;16.20;99.90;;;;;;5093621;28;20484;-57
2023/07/06 05:05:07;;;;;;;3.70;2.97;;;16.40;99.90;;;;;;5093119;28;20525;-58
2023/07/06 05:07:33;;;;;;;8.00;2.90;;;16.00;99.90;;;;;;5093716;28;20446;-58
2023/07/06 05:10:01;;;;;;;3.00;2.70;;;;;;;;;;5089451;28;20462;-57
2023/07/06 05:12:29;;;;;;;3.60;3.20;;;16.30;99.90;;;;;;5091864;28;20512;-57
2023/07/06 05:14:56;;;;;;;4.97;3.40;;;16.40;99.90;;;;;;5090037;28;20463;-59
2023/07/06 05:17:24;;;;;;;4.63;3.17;;;;;;;;;;5089326;28;20466;-60
2023/07/06 05:19:51;;;;;;;3.43;3.13;;;;;;;;;;5090457;28;20446;-59
2023/07/06 05:22:18;;;;;;;5.37;3.03;;;16.50;99.90;;;;;;5091382;28;20472;-57
2023/07/06 05:24:45;;;;;;;3.03;2.67;;;17.00;99.90;;;;;;5093048;28;20744;-59
2023/07/06 05:27:12;;;;;;;3.47;2.87;;;16.50;99.90;;;;;;5092243;28;20454;-55
2023/07/06 05:29:40;;;;;;;2.73;2.30;;;17.00;99.90;;;;;;5087367;28;20513;-58
2023/07/06 05:32:10;;;;;;;3.90;2.57;;;16.80;99.90;;;;;;5083361;28;20989;-61
2023/07/06 05:34:38;;;;;;;3.47;3.00;;;;;;;;;;5091908;28;20504;-55
2023/07/06 05:37:05;;;;;;;7.93;3.37;;;16.90;99.90;;;;;;5093556;28;20433;-53
2023/07/06 05:39:32;;;;;;;3.27;2.40;;;;;;;;;;5093610;28;20466;-56
2023/07/06 05:41:59;;;;;;;3.77;2.53;;;;;;;;;;5088968;28;20473;-56
2023/07/06 05:44:26;;;;;;;5.60;2.67;;;17.10;99.90;;;;;;5085524;28;20450;-56
2023/07/06 05:46:54;;;;;;;4.80;2.47;;;16.90;99.90;;;;;;5090826;28;20467;-57
2023/07/06 05:49:22;;;;;;;3.20;2.53;;;;;;;;;;5087376;28;20446;-57
2023/07/06 05:51:49;;;;;;;4.63;3.40;;;;;;;;;;5090790;28;20445;-60
2023/07/06 05:54:16;;;;;;;4.50;3.23;;;;;;;;;;5090605;28;20498;-60
2023/07/06 05:56:46;;;;;;;5.43;2.60;;;;;;;;;;5090535;28;20473;-58
2023/07/06 05:59:15;;;;;;;5.70;3.00;;;;;;;;;;5091711;28;20520;-59
2023/07/06 06:01:42;;;;;;;5.83;2.67;;;17.40;99.90;;;;;;5088440;28;20450;-56
2023/07/06 06:04:10;;;;;;;3.10;2.13;;;17.40;99.90;;;;;;5091483;28;20449;-53
2023/07/06 06:06:47;;;;;;;4.30;2.00;;;17.30;99.90;;;;;;5089230;28;20485;-61
2023/07/06 06:09:14;;;;;;;2.40;2.17;;;17.40;99.90;;;;;;5075207;28;20430;-58
2023/07/06 06:11:41;;;;;;;3.67;2.43;;;;;;;;;;5079960;28;20489;-61
2023/07/06 06:14:09;;;;;;;4.20;2.17;;;17.60;99.90;;;;;;5086144;28;20454;-60
2023/07/06 06:16:36;;;;;;;2.17;1.97;;;;;;;;;;5085911;28;20442;-62
2023/07/06 06:19:04;;;;;;;5.00;2.73;;;17.80;99.90;;;;;;5085815;28;20534;-60
2023/07/06 06:21:33;;;;;;;3.30;2.20;;;17.80;99.90;;;;;;5083974;28;20489;-58
2023/07/06 06:24:00;;;;;;;4.50;2.50;;;;;;;;;;5083337;28;20462;-61
2023/07/06 06:26:29;;;;;;;7.53;2.70;;;;;;;;;;5081181;28;20810;-60
2023/07/06 06:28:57;;;;;;;4.90;2.37;;;;;;;;;;5078162;28;20446;-59
2023/07/06 06:31:25;;;;;;;3.27;2.47;;;;;;;;;;5074905;28;20470;-60
2023/07/06 06:33:52;;;;;;;2.70;2.50;;;;;;;;;;5074638;28;20543;-61
2023/07/06 06:36:20;;;;;;;7.13;1.90;;;;;;;;;;5074744;28;20435;-57
2023/07/06 06:38:48;;;;;;;3.97;2.10;;;;;;;;;;5076818;28;20514;-59
2023/07/06 06:41:16;;;;;;;2.47;2.07;;;18.90;99.90;;;;;;5080613;28;20450;-60
2023/07/06 06:43:44;;;;;;;3.77;1.90;;;18.00;99.90;;;;;;5078171;28;20502;-59
2023/07/06 06:46:12;;;;;;;3.10;2.00;;;;;;;;;;5077650;28;20883;-62
2023/07/06 06:48:39;;;;;;;2.17;1.80;;;18.00;99.90;;;;;;5078129;28;20489;-59
2023/07/06 06:51:07;;;;;;;3.73;2.60;;;18.40;99.90;;;;;;5077287;28;20472;-60
2023/07/06 06:53:37;;;;;;;3.13;2.40;;;;;;;;;;5079782;28;20533;-62
2023/07/06 06:56:06;;;;;;;2.43;1.70;;;18.50;99.90;;;;;;5078103;28;20553;-60
2023/07/06 06:58:35;;;;;;;2.17;1.70;;;;;;;;;;5080244;28;20923;-58
2023/07/06 07:01:03;;;;;;;4.00;2.17;;;18.50;99.90;;;;;;5075063;28;20968;-61
2023/07/06 07:03:31;;;;;;;3.20;1.77;;;;;;;;;;5074399;28;20470;-62
2023/07/06 07:06:01;;;;;;;3.53;1.97;;;;;;;;;;5076297;28;20462;-61
2023/07/06 07:08:29;;;;;;;2.77;1.60;;;;;;;;;;5078148;28;20438;-61
2023/07/06 07:10:57;;;;;;;3.17;2.10;;;18.70;99.90;;;;;;5077258;28;20520;-59
2023/07/06 07:13:27;;;;;;;1.70;1.60;;;18.80;99.90;;;;;;5074555;28;20513;-61
2023/07/06 07:15:55;;;;;;;4.13;2.10;;;;;;;;;;5074214;28;20446;-61
2023/07/06 07:18:22;;;;;;;3.40;1.70;;;19.20;99.90;;;;;;5074565;28;20450;-59
2023/07/06 07:20:52;;;;;;;3.73;1.77;;;19.50;99.90;;;;;;5074775;28;20891;-59
2023/07/06 07:23:22;;;;;;;4.00;1.87;;;20.40;99.90;;;;;;5074897;28;20478;-58
2023/07/06 07:25:49;;;;;;;2.00;1.73;;;;;;;;;;5074455;28;20953;-58
2023/07/06 07:28:17;;;;;;;3.87;2.30;;;23.50;99.90;;;;;;5076087;28;20978;-59
2023/07/06 07:30:55;;;;;;;3.70;2.23;;;24.70;99.90;;;;;;5078264;28;20476;-61
2023/07/06 07:33:22;;;;;;;1.77;1.30;;;;;;;;;;5077305;28;20513;-59
2023/07/06 07:35:51;;;;;;;2.43;1.90;;;27.20;99.90;;;;;;5074418;28;20493;-59
2023/07/06 07:38:19;;;;;;;2.30;2.00;;;27.80;99.90;;;;;;5076086;28;20470;-57
2023/07/06 07:40:55;;;;;;;4.20;1.97;;;28.50;99.90;;;;;;5075844;28;20442;-60
2023/07/06 07:43:25;;;;;;;2.50;2.20;;;29.10;85.70;;;;;;5074230;28;20430;-57
2023/07/06 07:45:55;;;;;;;3.20;1.83;;;;;;;;;;5074995;28;20521;-59
2023/07/06 07:48:23;;;;;;;3.17;1.90;;;29.70;94.70;;;;;;5074880;28;20468;-59
2023/07/06 07:50:50;;;;;;;5.53;1.80;;;;;;;;;;5077802;28;20469;-61
2023/07/06 07:53:18;;;;;;;3.47;1.70;;;;;;;;;;5080003;28;20576;-62
2023/07/06 07:55:46;;;;;;;5.50;2.07;;;;;;;;;;5078092;28;20774;-60
2023/07/06 07:58:13;;;;;;;3.83;1.53;;;;;;;;;;5077514;28;20474;-62
2023/07/06 08:00:40;;;;;;;2.17;1.90;;;29.60;93.90;;;;;;5080422;28;20442;-59
2023/07/06 08:03:09;;;;;;;1.87;1.63;;;29.00;93.30;;;;;;5081640;28;20449;-60
2023/07/06 08:05:38;;;;;;;3.73;1.63;;;29.30;64.20;;;;;;5082778;28;20478;-60
2023/07/06 08:08:06;;;;;;;11.13;1.97;;;;;;;;;;5081217;28;20447;-61
2023/07/06 08:10:36;;;;;;;3.20;1.80;;;29.80;63.40;;;;;;5083475;28;20473;-57
2023/07/06 08:13:05;;;;;;;2.23;1.77;;;30.10;94.90;;;;;;5085649;28;20470;-60
2023/07/06 08:15:33;;;;;;;5.93;2.50;;;;;;;;;;5082103;28;20471;-58
2023/07/06 08:18:01;;;;;;;2.50;1.83;;;30.20;91.60;;;;;;5080294;28;20534;-60
2023/07/06 08:20:32;;;;;;;2.10;1.67;;;29.50;64.20;;;;;;5079635;28;20508;-59
2023/07/06 08:23:03;;;;;;;1.97;1.80;;;29.70;90.80;;;;;;5077215;28;20477;-62
2023/07/06 08:25:37;;;;;;;1.80;1.50;;;29.70;61.00;;;;;;5077440;28;20473;-57
2023/07/06 08:28:05;;;;;;;8.47;2.63;;;29.60;90.20;;;;;;5077329;28;20443;-61
2023/07/06 08:30:32;;;;;;;2.70;1.87;;;;;;;;;;5084081;28;20514;-60
2023/07/06 08:33:01;;;;;;;1.50;1.40;;;30.50;56.50;;;;;;5082517;28;20494;-58
2023/07/06 08:35:32;;;;;;;1.90;1.60;;;30.70;57.10;;;;;;5081893;28;20507;-61
2023/07/06 08:38:04;;;;;;;2.40;1.40;;;;;;;;;;5077124;28;20482;-62
2023/07/06 08:40:31;;;;;;;2.73;1.97;;;;;;;;;;5077326;28;20431;-60
2023/07/06 08:43:00;;;;;;;2.53;1.67;;;30.50;86.70;;;;;;5077074;28;20446;-62
2023/07/06 08:45:38;;;;;;;5.30;2.30;;;29.70;58.60;;;;;;5077579;28;20486;-61
2023/07/06 08:48:07;;;;;;;2.10;1.90;;;28.20;90.90;;;;;;5077217;28;20426;-59
2023/07/06 08:50:37;;;;;;;3.10;2.30;;;;;;;;;;5077241;28;20468;-61
2023/07/06 08:53:10;;;;;;;2.30;2.10;;;;;;;;;;5081542;28;20489;-62
2023/07/06 08:55:37;;;;;;;2.27;1.80;;;25.90;94.50;;;;;;5082743;28;20431;-60
2023/07/06 08:58:06;;;;;;;2.67;1.50;;;26.10;94.10;;;;;;5082713;28;20958;-58
2023/07/06 09:00:33;;;;;;;2.27;1.90;;;;;;;;;;5082104;28;20446;-60
2023/07/06 09:03:06;;;;;;;4.20;2.30;;;25.20;95.70;;;;;;5082195;28;20438;-59
2023/07/06 09:05:37;;;;;;;1.90;1.50;;;24.90;71.50;;;;;;5076708;28;20558;-60
2023/07/06 09:08:05;;;;;;;4.37;2.27;;;24.20;99.90;;;;;;5077043;28;20461;-62
2023/07/06 09:10:32;;;;;;;9.10;5.97;;;23.70;82.30;;;;;;5077151;28;20535;-59
2023/07/06 09:13:15;;;;;;;29.83;15.07;;;24.20;90.10;;;;;;5082695;28;20450;-61
2023/07/06 09:15:44;;;;;;;5.30;2.80;;;;;;;;;;5088317;28;20755;-60
2023/07/06 09:18:15;;;;;;;3.60;2.20;;;26.90;98.60;;;;;;5081853;28;20475;-60
2023/07/06 09:20:46;;;;;;;2.73;2.53;;;27.70;64.80;;;;;;5081898;28;20430;-58
2023/07/06 09:23:15;;;;;;;3.00;1.80;;;28.60;63.00;;;;;;5077260;28;20423;-58
2023/07/06 09:25:44;;;;;;;3.40;1.63;;;28.80;91.50;;;;;;5079171;28;20446;-57
2023/07/06 09:28:16;;;;;;;2.10;1.90;;;28.20;92.20;;;;;;5080836;28;20451;-56
2023/07/06 09:30:47;;;;;;;2.60;2.10;;;27.20;92.80;;;;;;5077773;28;20558;-59
2023/07/06 09:33:19;;;;;;;1.97;1.80;;;26.20;66.90;;;;;;5076021;28;20466;-59
2023/07/06 09:35:50;;;;;;;4.13;1.97;;;25.10;96.10;;;;;;5080279;28;20476;-56
2023/07/06 09:38:18;;;;;;;4.10;1.80;;;;;;;;;;5082726;28;20427;-59
2023/07/06 09:40:50;;;;;;;6.03;1.90;;;25.90;70.00;;;;;;5082148;28;20455;-60
2023/07/06 09:43:22;;;;;;;2.03;1.50;;;27.20;94.00;;;;;;5075654;28;20477;-61
2023/07/06 09:45:51;;;;;;;2.63;1.93;;;28.30;62.10;;;;;;5076488;28;20446;-61
2023/07/06 09:48:29;;;;;;;5.70;1.70;;;29.40;61.40;;;;;;5078364;28;20988;-62
2023/07/06 09:51:03;;;;;;;3.37;2.47;;;30.00;60.00;;;;;;5080466;28;20892;-60
2023/07/06 09:53:34;;;;;;;2.33;1.70;;;30.40;89.40;;;;;;5078189;28;20492;-60
2023/07/06 09:56:02;;;;;;;2.40;1.60;;;30.40;93.30;;;;;;5075892;28;20546;-59
2023/07/06 09:58:33;;;;;;;1.53;1.43;;;30.40;56.90;;;;;;5076412;28;20446;-61
2023/07/06 10:01:06;;;;;;;3.90;1.93;;;30.60;87.30;;;;;;5075919;28;20520;-61
2023/07/06 10:03:44;;;;;;;7.70;6.90;;;30.30;87.40;;;;;;5075374;28;20494;-59
2023/07/06 10:06:29;;;;;;;2.93;1.70;;;30.70;56.50;;;;;;5075704;28;20430;-62
2023/07/06 10:09:03;;;;;;;4.17;1.83;;;29.60;57.90;;;;;;5075316;28;20887;-59
2023/07/06 10:11:37;;;;;;;4.40;3.50;;;29.40;71.90;;;;;;5074656;28;20489;-61
2023/07/06 10:14:16;;;;;;;3.03;2.27;;;28.40;94.80;;;;;;5075758;28;20954;-59
2023/07/06 10:16:55;;;;;;;2.83;2.30;;;27.30;92.20;;;;;;5075325;28;20458;-60
2023/07/06 10:19:28;;;;;;;8.83;2.40;;;26.10;95.20;;;;;;5076505;28;20512;-59
2023/07/06 10:22:07;;;;;;;9.33;3.10;;;26.00;66.40;;;;;;5079534;28;20492;-61
2023/07/06 10:24:41;;;;;;;3.57;1.87;;;25.80;80.80;;;;;;5076214;28;20501;-58
2023/07/06 10:27:17;;;;;;;6.30;2.20;;;24.90;99.00;;;;;;5075273;28;20462;-62
2023/07/06 10:29:47;;;;;;;4.40;2.63;;;25.10;95.70;;;;;;5076975;28;20454;-62
2023/07/06 10:32:18;;;;;;;3.93;2.53;;;25.60;99.40;;;;;;5080259;28;20494;-62
2023/07/06 10:34:53;;;;;;;4.10;2.17;;;26.70;68.60;;;;;;5075555;28;20462;-61
2023/07/06 10:37:24;;;;;;;1.93;1.70;;;26.20;94.60;;;;;;5074787;28;20431;-61
2023/07/06 10:40:15;;;;;;;2.97;2.50;;;25.60;60.50;;;;;;5074741;28;20941;-60
2023/07/06 10:42:46;;;;;;;3.17;2.10;;;25.90;97.40;;;;;;5073869;28;20434;-62
2023/07/06 10:45:24;;;;;;;2.37;2.07;;;26.30;98.20;;;;;;5075512;28;20462;-62
2023/07/06 10:47:52;;;;;;;4.23;2.20;;;26.30;71.10;;;;;;5075624;28;20458;-63
2023/07/06 10:50:28;;;;;;;4.83;2.10;;;26.90;97.40;;;;;;5076109;28;20470;-61
2023/07/06 10:53:02;;;;;;;3.23;2.03;;;26.10;93.70;;;;;;5080249;28;20785;-61
2023/07/06 10:55:34;;;;;;;3.33;2.13;;;26.30;94.60;;;;;;5080096;28;20514;-61
2023/07/06 10:58:24;;;;;;;5.13;2.13;;;25.80;95.20;;;;;;5078590;28;20435;-62
2023/07/06 11:00:53;;;;;;;2.23;1.87;;;25.40;69.90;;;;;;5077987;28;20529;-62
2023/07/06 11:03:24;;;;;;;4.20;1.97;;;24.80;68.50;;;;;;5079607;28;20531;-61
2023/07/06 11:06:05;;;;;;;4.17;2.07;;;24.90;66.30;;;;;;5080248;28;20438;-61
2023/07/06 11:09:16;;;;;;;9.63;5.47;;;25.20;86.80;;;;;;5081213;28;20520;-62
2023/07/06 11:12:23;;;;;;;3.07;2.73;;;25.70;98.00;;;;;;5061768;28;20463;-61
2023/07/06 11:15:16;;;;;;;2.90;1.83;;;26.30;67.00;;;;;;5081021;28;20489;-60
2023/07/06 11:17:48;;;;;;;2.23;1.80;;;26.00;93.70;;;;;;5079827;28;20481;-56
2023/07/06 11:20:19;;;;;;;2.50;1.83;;;25.90;96.80;;;;;;5079478;28;20507;-61
2023/07/06 11:22:52;;;;;;;3.30;3.10;;;25.10;96.00;;;;;;5077336;28;20502;-59
2023/07/06 11:25:19;;;;;;;4.00;2.03;;;;;;;;;;5081307;28;20430;-60
2023/07/06 11:27:53;;;;;;;2.53;2.00;;;25.00;68.20;;;;;;5078215;28;20470;-60
2023/07/06 11:30:26;;;;;;;2.23;2.03;;;24.80;95.20;;;;;;5078780;28;20450;-61
2023/07/06 11:33:09;;;;;;;3.20;2.03;;;24.90;95.90;;;;;;5079115;28;20473;-59
2023/07/06 11:35:41;;;;;;;4.20;2.13;;;;;;;;;;5079306;28;20466;-61
2023/07/06 11:38:20;;;;;;;3.70;2.10;;;25.80;98.80;;;;;;5079310;28;20487;-64
2023/07/06 11:41:11;;;;;;;4.57;2.40;;;25.60;96.20;;;;;;5079933;28;20501;-57
2023/07/06 11:43:55;;;;;;;4.57;1.87;;;25.50;98.40;;;;;;5077957;28;20917;-61
2023/07/06 11:46:36;;;;;;;2.63;2.00;;;25.30;99.00;;;;;;5077984;28;20561;-63
2023/07/06 11:49:20;;;;;;;2.20;2.00;;;24.80;95.30;;;;;;5079112;28;20430;-62
2023/07/06 11:51:49;;;;;;;2.50;2.30;;;24.70;70.00;;;;;;5079144;28;20465;-59
2023/07/06 11:54:29;;;;;;;1.90;1.70;;;24.90;99.90;;;;;;5081324;28;20462;-61
2023/07/06 11:57:23;;;;;;;2.47;2.17;;;24.00;96.40;;;;;;5081166;28;20522;-61
2023/07/06 12:00:09;;;;;;;3.80;2.60;;;24.10;92.50;;;;;;5082252;28;20504;-60
2023/07/06 12:02:40;;;;;;;2.30;1.90;;;23.90;97.20;;;;;;5083750;28;20426;-60
2023/07/06 12:05:30;;;;;;;4.83;2.90;;;23.50;75.50;;;;;;5082105;28;20566;-63
2023/07/06 12:08:00;;;;;;;2.97;2.07;;;23.10;75.60;;;;;;5083171;28;20547;-60
2023/07/06 12:10:29;;;;;;;2.63;2.27;;;23.10;99.90;;;;;;5081924;28;20803;-63
2023/07/06 12:12:56;;;;;;;3.47;2.10;;;;;;;;;;5078200;28;20454;-61
2023/07/06 12:15:25;;;;;;;2.33;2.13;;;22.80;99.90;;;;;;5077636;28;20482;-62
2023/07/06 12:17:56;;;;;;;2.13;1.83;;;22.60;99.90;;;;;;5077304;28;20478;-59
2023/07/06 12:20:23;;;;;;;2.20;1.70;;;;;;;;;;5080637;28;20444;-59
2023/07/06 12:22:52;;;;;;;2.57;2.37;;;;;;;;;;5077215;28;20950;-57
2023/07/06 12:25:19;;;;;;;2.00;1.80;;;;;;;;;;5077502;28;20422;-62
2023/07/06 12:27:46;;;;;;;1.67;1.57;;;23.50;98.70;;;;;;5077257;28;20461;-61
2023/07/06 12:30:15;;;;;;;2.70;1.90;;;23.60;99.90;;;;;;5082655;28;20473;-60
2023/07/06 12:32:47;;;;;;;3.80;2.53;;;23.70;98.50;;;;;;5077525;28;20545;-61
2023/07/06 12:35:15;;;;;;;2.40;2.03;;;24.00;73.30;;;;;;5078797;28;20490;-60
2023/07/06 12:37:45;;;;;;;2.10;1.90;;;24.20;73.00;;;;;;5083109;28;20527;-60
2023/07/06 12:40:20;;;;;;;3.70;2.20;;;24.70;97.60;;;;;;5081202;28;20507;-60
2023/07/06 12:42:47;;;;;;;2.70;2.10;;;;;;;;;;5080381;28;20473;-57
2023/07/06 12:45:18;;;;;;;1.90;1.70;;;24.70;99.40;;;;;;5080669;28;20530;-61
2023/07/06 12:47:47;;;;;;;3.57;2.23;;;24.80;98.20;;;;;;5080004;28;20934;-61
2023/07/06 12:50:26;;;;;;;5.93;1.60;;;24.80;96.90;;;;;;5077469;28;20446;-62
2023/07/06 12:53:01;;;;;;;2.13;1.93;;;24.90;95.10;;;;;;5076874;28;20437;-60
2023/07/06 12:55:32;;;;;;;4.57;2.50;;;24.50;68.50;;;;;;5077729;28;20513;-61
2023/07/06 12:58:15;;;;;;;2.00;1.83;;;25.10;98.90;;;;;;5077414;28;20427;-61
2023/07/06 13:00:47;;;;;;;2.03;1.70;;;24.80;98.00;;;;;;5077970;28;20477;-59
2023/07/06 13:03:16;;;;;;;4.10;1.97;;;24.80;70.10;;;;;;5083227;28;20495;-61
2023/07/06 13:05:54;;;;;;;2.40;1.40;;;24.70;68.30;;;;;;5080644;28;20468;-60
2023/07/06 13:08:21;;;;;;;4.13;2.27;;;;;;;;;;5080610;28;20434;-62
2023/07/06 13:11:00;;;;;;;3.37;3.07;;;24.40;90.80;;;;;;5085719;28;20465;-61
2023/07/06 13:13:27;;;;;;;2.27;2.00;;;24.40;99.30;;;;;;5081712;28;20569;-60
2023/07/06 13:16:01;;;;;;;1.97;1.80;;;24.10;96.80;;;;;;5080372;28;20565;-58
2023/07/06 13:18:29;;;;;;;2.50;1.90;;;24.20;72.00;;;;;;5080306;28;20504;-60
2023/07/06 13:20:57;;;;;;;2.23;1.80;;;;;;;;;;5076241;28;20461;-60
2023/07/06 13:23:28;;;;;;;2.63;2.17;;;;;;;;;;5076742;28;20470;-57
2023/07/06 13:25:55;;;;;;;2.27;2.00;;;24.70;97.90;;;;;;5077257;28;20898;-61
2023/07/06 13:28:22;;;;;;;5.73;2.33;;;25.10;99.10;;;;;;5077280;28;20446;-61
2023/07/06 13:30:50;;;;;;;2.80;1.87;;;;;;;;;;5078849;28;20482;-60
2023/07/06 13:33:19;;;;;;;2.63;2.03;;;;;;;;;;5076378;28;20493;-57
2023/07/06 13:35:47;;;;;;;2.00;1.80;;;25.00;96.80;;;;;;5076619;28;20539;-59
2023/07/06 13:38:15;;;;;;;1.80;1.60;;;24.90;94.70;;;;;;5076241;28;20569;-60
2023/07/06 13:40:43;;;;;;;4.40;1.93;;;25.20;68.60;;;;;;5076272;28;20452;-58
2023/07/06 13:43:14;;;;;;;2.20;1.57;;;25.20;97.10;;;;;;5075980;28;20539;-60